Rossville, Kansas
Current Conditions -  °F | °C
As of 2:53 PM on Monday 22 Dec 2014 (Local Time) from KFOE Reporting Station
Overcast Overcast  
Wind Chill: 42°   Ceiling: 2000
Heat Index: 48°   Visibility: 10mi
Dew Point: 42°   Wind: 14mph
Humidity: 80%   Direction: 290°WNW
Pressure: 29.45"   Gusts: NA
Location:  39.14°N, 95.95°W
Report Text: KFOE 222053Z 29012KT 10SM SCT014 BKN020 OVC090 09/06 A2945 RMK AO2 SLP975 T00890056 55013
Loading
Personal Weather Stations






























Interactive Weather Map New forecast layout! Learn more

10-Day Weather Forecast

Advertisements
Track Severe Weather on mobile